Time;durP1;ratioP1;P1;durP2;ratioP2;P2;SDS_P1;SDS_P2;PMS_P1;PMS_P2;Temp;Humidity;BMP_temperature;BMP_pressure;BME280_temperature;BME280_humidity;BME280_pressure;Samples;Min_cycle;Max_cycle;Signal;HPM_P1;HPM_P2
2022/07/16 00:03:00;;;;;;;2.43;2.10;;;18.10;99.90;;;;;;5084142;28;20215;-90
2022/07/16 00:05:27;;;;;;;2.97;1.70;;;18.10;99.90;;;;;;5093125;28;20202;-86
2022/07/16 00:07:57;;;;;;;2.60;1.90;;;18.10;99.90;;;;;;5076050;28;20211;-85
2022/07/16 00:10:26;;;;;;;2.95;2.05;;;18.10;99.90;;;;;;5083815;28;20319;-87
2022/07/16 00:12:55;;;;;;;3.60;1.83;;;18.10;99.90;;;;;;5090770;28;20204;-86
2022/07/16 00:15:22;;;;;;;3.60;2.23;;;18.20;99.90;;;;;;5090073;28;20883;-86
2022/07/16 00:19:15;;;;;;;3.58;2.38;;;18.20;99.90;;;;;;5085415;28;20218;-87
2022/07/16 00:20:41;;;;;;;3.45;2.10;;;18.20;99.90;;;;;;5090494;28;20218;-86
2022/07/16 00:23:16;;;;;;;3.42;2.08;;;18.20;99.90;;;;;;5078375;28;20596;-86
2022/07/16 00:25:43;;;;;;;2.10;1.90;;;18.20;99.90;;;;;;5088568;28;20282;-86
2022/07/16 00:28:10;;;;;;;2.67;2.05;;;18.10;99.90;;;;;;5084966;28;20292;-85
2022/07/16 00:30:39;;;;;;;3.42;2.28;;;18.20;99.90;;;;;;5082740;28;20216;-87
2022/07/16 00:33:10;;;;;;;4.93;2.13;;;18.10;99.90;;;;;;5087070;28;20211;-86
2022/07/16 00:35:37;;;;;;;4.97;2.60;;;18.10;99.90;;;;;;5080547;28;20203;-88
2022/07/16 00:38:04;;;;;;;4.43;2.60;;;18.00;99.90;;;;;;5080515;28;20249;-86
2022/07/16 00:40:31;;;;;;;4.10;2.37;;;17.90;99.90;;;;;;5087362;28;20219;-86
2022/07/16 00:42:59;;;;;;;4.90;2.33;;;17.90;99.90;;;;;;5083860;28;20363;-86
2022/07/16 00:45:29;;;;;;;3.07;2.37;;;17.80;99.90;;;;;;5085388;28;20246;-90
2022/07/16 00:47:57;;;;;;;3.63;2.60;;;17.70;99.90;;;;;;5082643;28;20220;-86
2022/07/16 00:50:25;;;;;;;4.17;2.97;;;17.60;99.90;;;;;;5086000;28;20292;-87
2022/07/16 00:52:52;;;;;;;4.77;2.93;;;17.60;99.90;;;;;;5082206;28;20207;-85
2022/07/16 00:55:19;;;;;;;5.70;3.00;;;17.60;99.90;;;;;;5084488;28;20277;-86
2022/07/16 00:57:46;;;;;;;5.77;3.10;;;17.60;99.90;;;;;;5084099;28;20286;-85
2022/07/16 01:00:16;;;;;;;5.10;3.10;;;17.60;99.90;;;;;;5085747;28;20239;-86
2022/07/16 01:02:43;;;;;;;4.20;2.80;;;17.60;99.90;;;;;;5085171;28;20224;-86
2022/07/16 01:05:16;;;;;;;3.87;2.73;;;17.60;99.90;;;;;;5079719;28;20702;-85
2022/07/16 01:07:46;;;;;;;4.67;3.57;;;17.70;99.90;;;;;;5077099;28;20225;-86
2022/07/16 01:10:18;;;;;;;3.20;2.87;;;17.70;99.90;;;;;;5080879;28;20204;-85
2022/07/16 01:12:45;;;;;;;4.77;3.20;;;17.70;99.90;;;;;;5088698;28;20262;-85
2022/07/16 01:15:12;;;;;;;4.00;3.07;;;17.70;99.90;;;;;;5090267;28;20219;-85
2022/07/16 01:17:39;;;;;;;3.60;2.60;;;17.70;99.90;;;;;;5088110;28;20208;-87
2022/07/16 01:20:08;;;;;;;4.60;3.37;;;17.70;99.90;;;;;;5083538;28;20204;-85
2022/07/16 01:22:35;;;;;;;6.90;3.30;;;17.80;99.90;;;;;;5091341;28;20283;-87
2022/07/16 01:25:02;;;;;;;4.43;3.30;;;17.70;99.90;;;;;;5094670;28;20222;-86
2022/07/16 01:27:29;;;;;;;4.50;3.33;;;17.70;99.90;;;;;;5087242;28;20204;-84
2022/07/16 01:30:00;;;;;;;6.83;3.80;;;17.70;99.90;;;;;;5086979;28;20220;-84
2022/07/16 01:32:27;;;;;;;5.63;3.57;;;17.70;99.90;;;;;;5085894;28;20265;-86
2022/07/16 01:34:54;;;;;;;5.17;3.20;;;17.70;99.90;;;;;;5085329;28;20208;-86
2022/07/16 01:37:22;;;;;;;5.80;3.43;;;17.70;99.90;;;;;;5080576;28;20750;-85
2022/07/16 01:39:49;;;;;;;4.27;3.50;;;17.70;99.90;;;;;;5083176;28;20212;-87
2022/07/16 01:42:16;;;;;;;4.67;3.77;;;17.80;99.90;;;;;;5087665;28;20212;-85
2022/07/16 01:44:43;;;;;;;7.43;4.17;;;17.80;99.90;;;;;;5083890;28;20234;-86
2022/07/16 01:47:10;;;;;;;6.37;3.67;;;17.80;99.90;;;;;;5078145;28;20228;-84
2022/07/16 01:49:39;;;;;;;7.93;3.77;;;17.80;99.90;;;;;;5078334;28;20196;-85
2022/07/16 01:52:16;;;;;;;3.43;3.13;;;17.80;99.90;;;;;;5082604;28;20259;-88
2022/07/16 01:54:49;;;;;;;4.20;3.30;;;17.80;99.90;;;;;;5083837;28;20206;-85
2022/07/16 01:57:16;;;;;;;6.72;3.00;;;17.80;99.90;;;;;;5087938;28;20203;-87
2022/07/16 01:59:47;;;;;;;5.20;3.50;;;17.90;99.90;;;;;;5076555;28;20216;-86
2022/07/16 02:02:16;;;;;;;3.90;3.50;;;17.90;99.90;;;;;;5081349;28;20309;-85
2022/07/16 02:04:43;;;;;;;6.77;3.37;;;17.90;99.90;;;;;;5079990;28;20224;-86
2022/07/16 02:07:11;;;;;;;6.20;3.57;;;17.90;99.90;;;;;;5082054;28;20299;-86
2022/07/16 02:09:38;;;;;;;7.67;3.73;;;17.90;99.90;;;;;;5084045;28;20198;-85
2022/07/16 02:12:05;;;;;;;4.50;3.20;;;17.90;99.90;;;;;;5083828;28;20204;-85
2022/07/16 02:14:33;;;;;;;6.23;3.50;;;17.90;99.90;;;;;;5084273;28;20226;-85
2022/07/16 02:17:00;;;;;;;5.68;3.47;;;18.00;99.90;;;;;;5079442;28;20227;-86
2022/07/16 02:19:27;;;;;;;8.40;3.83;;;17.90;99.90;;;;;;5082846;28;20212;-87
2022/07/16 02:21:54;;;;;;;5.57;3.77;;;18.00;99.90;;;;;;5076056;28;20659;-85
2022/07/16 02:24:21;;;;;;;4.70;3.35;;;17.90;99.90;;;;;;5078577;28;20234;-85
2022/07/16 02:26:48;;;;;;;3.47;3.00;;;17.90;99.90;;;;;;5081760;28;20204;-85
2022/07/16 02:29:18;;;;;;;3.67;3.30;;;17.90;99.90;;;;;;5083660;28;20215;-84
2022/07/16 02:31:45;;;;;;;7.07;3.57;;;17.80;99.90;;;;;;5084000;28;20220;-86
2022/07/16 02:34:13;;;;;;;5.63;3.30;;;17.80;99.90;;;;;;5077699;28;20200;-85
2022/07/16 02:36:56;;;;;;;5.87;3.60;;;17.90;99.90;;;;;;5086114;28;20251;-87
2022/07/16 02:39:25;;;;;;;4.20;3.27;;;17.80;99.90;;;;;;5078626;28;20207;-84
2022/07/16 02:41:52;;;;;;;3.90;3.07;;;17.70;99.90;;;;;;5086037;28;20214;-84
2022/07/16 02:44:19;;;;;;;6.63;3.27;;;17.80;99.90;;;;;;5083756;28;20223;-85
2022/07/16 02:46:46;;;;;;;4.07;3.40;;;17.80;99.90;;;;;;5078128;28;20222;-86
2022/07/16 02:49:16;;;;;;;7.83;3.17;;;17.90;99.90;;;;;;5083254;28;20204;-86
2022/07/16 02:51:43;;;;;;;5.10;3.93;;;17.70;99.90;;;;;;5081084;28;20211;-85
2022/07/16 02:54:10;;;;;;;3.83;3.00;;;17.80;99.90;;;;;;5082321;28;20315;-86
2022/07/16 02:56:37;;;;;;;4.47;3.37;;;17.80;99.90;;;;;;5078774;28;20249;-85
2022/07/16 02:59:05;;;;;;;4.97;3.37;;;17.90;99.90;;;;;;5082691;28;20597;-86
2022/07/16 03:01:32;;;;;;;6.27;3.57;;;17.90;99.90;;;;;;5082779;28;20227;-86
2022/07/16 03:03:59;;;;;;;5.50;3.30;;;17.90;99.90;;;;;;5081798;28;20673;-86
2022/07/16 03:06:26;;;;;;;6.60;3.33;;;17.90;99.90;;;;;;5081953;28;20235;-86
2022/07/16 03:08:56;;;;;;;5.17;3.30;;;17.90;99.90;;;;;;5074079;28;20201;-86
2022/07/16 03:11:23;;;;;;;4.50;3.33;;;17.90;99.90;;;;;;5080161;28;20203;-86
2022/07/16 03:13:53;;;;;;;5.03;3.17;;;18.00;99.90;;;;;;5081726;28;20691;-85
2022/07/16 03:16:20;;;;;;;6.63;3.67;;;18.00;99.90;;;;;;5082848;28;20223;-85
2022/07/16 03:18:47;;;;;;;5.63;3.40;;;18.00;99.90;;;;;;5085752;28;20248;-86
2022/07/16 03:21:14;;;;;;;6.13;3.53;;;18.00;99.90;;;;;;5091894;28;20204;-86
2022/07/16 03:23:41;;;;;;;5.23;3.30;;;18.00;99.90;;;;;;5105225;28;20258;-86
2022/07/16 03:26:13;;;;;;;5.67;3.30;;;18.00;99.90;;;;;;5109916;28;20317;-87
2022/07/16 03:28:41;;;;;;;5.70;3.33;;;18.00;99.90;;;;;;5087263;28;20696;-85
2022/07/16 03:31:10;;;;;;;6.13;3.60;;;18.10;99.90;;;;;;5093385;28;20295;-86
2022/07/16 03:33:37;;;;;;;5.83;3.83;;;18.00;99.90;;;;;;5084124;28;20204;-86
2022/07/16 03:36:04;;;;;;;4.70;3.40;;;18.10;99.90;;;;;;5110648;28;20215;-87
2022/07/16 03:41:20;;;;;;;5.57;3.83;;;18.10;99.90;;;;;;5087080;28;20204;-86
2022/07/16 03:43:56;;;;;;;5.70;3.60;;;18.00;99.90;;;;;;5089343;28;20658;-87
2022/07/16 03:46:24;;;;;;;6.37;3.43;;;18.10;99.90;;;;;;5087199;28;20286;-87
2022/07/16 03:48:51;;;;;;;4.37;3.40;;;18.10;99.90;;;;;;5083859;28;20224;-86
2022/07/16 03:51:32;;;;;;;5.13;3.43;;;18.10;99.90;;;;;;5091161;28;20204;-86
2022/07/16 03:53:59;;;;;;;6.53;3.87;;;18.10;99.90;;;;;;5084417;28;20947;-85
2022/07/16 03:56:30;;;;;;;5.13;2.90;;;18.00;99.90;;;;;;5085985;28;20203;-87
2022/07/16 03:59:00;;;;;;;6.23;3.10;;;18.00;99.90;;;;;;5088341;28;20211;-85
2022/07/16 04:01:29;;;;;;;7.20;3.17;;;17.90;99.90;;;;;;5090328;28;20223;-85
2022/07/16 04:03:56;;;;;;;5.40;3.00;;;17.90;99.90;;;;;;5085777;28;20261;-87
2022/07/16 04:06:24;;;;;;;4.63;2.90;;;17.80;99.90;;;;;;5094281;28;20213;-86
2022/07/16 04:08:53;;;;;;;4.27;3.23;;;17.80;99.90;;;;;;5084120;28;20253;-84
2022/07/16 04:11:27;;;;;;;3.90;2.60;;;17.80;99.90;;;;;;5076647;28;20204;-86
2022/07/16 04:13:54;;;;;;;3.37;2.70;;;17.80;99.90;;;;;;5089015;28;20291;-88
2022/07/16 04:16:29;;;;;;;4.30;3.10;;;17.80;99.90;;;;;;5089220;28;20219;-87
2022/07/16 04:19:01;;;;;;;4.30;2.87;;;17.80;99.90;;;;;;5089227;28;20211;-85
2022/07/16 04:21:29;;;;;;;7.20;3.20;;;17.80;99.90;;;;;;5088688;28;20203;-85
2022/07/16 04:24:01;;;;;;;4.13;2.70;;;17.80;99.90;;;;;;5086637;28;20223;-86
2022/07/16 04:26:38;;;;;;;;;;;;;;;;;;;;;
2022/07/16 04:29:05;;;;;;;4.80;2.50;;;17.80;99.90;;;;;;5084916;28;20201;-86
2022/07/16 04:31:34;;;;;;;6.97;2.63;;;17.80;99.90;;;;;;5086526;28;20299;-85
2022/07/16 04:34:01;;;;;;;3.77;2.30;;;17.90;99.90;;;;;;5084057;28;20261;-88
2022/07/16 04:36:29;;;;;;;3.03;2.30;;;17.90;99.90;;;;;;5094642;28;20196;-86
2022/07/16 04:38:58;;;;;;;6.33;2.40;;;17.90;99.90;;;;;;5090027;28;20618;-85
2022/07/16 04:41:25;;;;;;;6.37;2.60;;;17.90;99.90;;;;;;5082802;28;20270;-88
2022/07/16 04:43:52;;;;;;;4.03;2.37;;;18.00;99.90;;;;;;5086736;28;20261;-86
2022/07/16 04:46:21;;;;;;;8.13;2.37;;;18.00;99.90;;;;;;5087683;28;20307;-86
2022/07/16 04:48:49;;;;;;;5.67;2.03;;;17.90;99.90;;;;;;5082473;28;20232;-85
2022/07/16 04:51:18;;;;;;;4.03;2.20;;;17.90;99.90;;;;;;5080201;28;20206;-84
2022/07/16 04:53:48;;;;;;;6.43;2.20;;;17.90;99.90;;;;;;5085486;28;20239;-85
2022/07/16 04:56:17;;;;;;;5.70;2.07;;;17.90;99.90;;;;;;5083008;28;20196;-85
2022/07/16 04:58:51;;;;;;;2.97;1.97;;;17.80;99.90;;;;;;5080232;28;20208;-85
2022/07/16 05:01:17;;;;;;;7.93;2.43;;;17.80;99.90;;;;;;5083164;28;20589;-84
2022/07/16 05:03:47;;;;;;;5.10;2.00;;;17.80;99.90;;;;;;5077084;28;20232;-84
2022/07/16 05:06:15;;;;;;;4.03;2.20;;;17.70;99.90;;;;;;5085350;28;20207;-87
2022/07/16 05:08:45;;;;;;;3.87;1.97;;;17.70;99.90;;;;;;5093891;28;20884;-83
2022/07/16 05:11:19;;;;;;;6.80;2.40;;;17.60;99.90;;;;;;5092976;28;20207;-84
2022/07/16 05:13:46;;;;;;;6.03;2.47;;;17.60;99.90;;;;;;5087505;28;20200;-86
2022/07/16 05:16:13;;;;;;;2.00;1.80;;;17.60;99.90;;;;;;5091201;28;20230;-85
2022/07/16 05:18:45;;;;;;;6.37;2.40;;;17.60;99.90;;;;;;5085500;28;20200;-84
2022/07/16 05:21:12;;;;;;;4.37;2.13;;;17.60;99.90;;;;;;5083541;28;20226;-85
2022/07/16 05:23:46;;;;;;;5.47;2.00;;;17.60;99.90;;;;;;5079129;28;20227;-83
2022/07/16 05:26:13;;;;;;;4.17;1.77;;;17.60;99.90;;;;;;5087056;28;20298;-85
2022/07/16 05:28:42;;;;;;;3.17;2.30;;;17.50;99.90;;;;;;5088716;28;21066;-87
2022/07/16 05:31:13;;;;;;;3.67;2.23;;;17.60;99.90;;;;;;5086708;28;20223;-85
2022/07/16 05:33:44;;;;;;;4.60;2.40;;;17.60;99.90;;;;;;5084487;28;20235;-82
2022/07/16 05:36:12;;;;;;;5.40;2.13;;;17.60;99.90;;;;;;5092295;28;20204;-86
2022/07/16 05:38:45;;;;;;;5.83;2.33;;;17.60;99.90;;;;;;5080743;28;20247;-86
2022/07/16 05:41:16;;;;;;;3.13;1.75;;;17.90;99.90;;;;;;5087162;28;20684;-85
2022/07/16 05:44:07;;;;;;;3.92;1.60;;;19.00;99.90;;;;;;5086145;28;20272;-87
2022/07/16 05:46:34;;;;;;;4.70;1.50;;;20.20;99.90;;;;;;5091194;28;20208;-88
2022/07/16 05:49:07;;;;;;;5.30;1.42;;;21.40;99.90;;;;;;5094588;28;20199;-89
2022/07/16 05:51:50;;;;;;;5.78;1.80;;;22.40;99.90;;;;;;5092608;28;20203;-88
2022/07/16 05:54:23;;;;;;;3.03;1.30;;;23.50;99.90;;;;;;5094745;28;20196;-87
2022/07/16 05:56:52;;;;;;;3.95;1.58;;;;;;;;;;5089348;28;20333;-87
2022/07/16 05:59:31;;;;;;;2.70;1.40;;;24.90;99.90;;;;;;5087147;28;20215;-88
2022/07/16 06:02:03;;;;;;;2.40;1.20;;;25.50;99.90;;;;;;5082982;28;20232;-89
2022/07/16 06:04:39;;;;;;;4.40;1.40;;;26.30;99.90;;;;;;5098249;28;20235;-87
2022/07/16 06:07:06;;;;;;;2.88;1.20;;;26.60;99.90;;;;;;5093926;28;20211;-88
2022/07/16 06:09:35;;;;;;;5.22;1.40;;;27.10;99.90;;;;;;5099225;28;20230;-84
2022/07/16 06:12:12;;;;;;;3.92;1.55;;;27.40;99.90;;;;;;5077402;28;20196;-84
2022/07/16 06:14:44;;;;;;;5.90;1.52;;;27.50;99.90;;;;;;5083904;28;20211;-86
2022/07/16 06:17:13;;;;;;;6.10;1.58;;;27.10;99.90;;;;;;5090273;28;20277;-86
2022/07/16 06:19:43;;;;;;;2.65;1.38;;;26.80;99.90;;;;;;5084163;28;20528;-87
2022/07/16 06:22:10;;;;;;;2.22;1.42;;;26.60;99.90;;;;;;5083327;28;20197;-86
2022/07/16 06:24:43;;;;;;;7.05;1.65;;;26.40;99.90;;;;;;5087680;28;20258;-86
2022/07/16 06:27:10;;;;;;;2.70;1.23;;;26.30;99.90;;;;;;5081539;28;20218;-86
2022/07/16 06:29:46;;;;;;;2.08;1.00;;;26.40;99.90;;;;;;5085932;28;20208;-87
2022/07/16 06:32:19;;;;;;;3.88;1.10;;;26.60;99.90;;;;;;5083175;28;20212;-86
2022/07/16 06:34:46;;;;;;;4.60;1.20;;;26.60;99.90;;;;;;5083988;28;20227;-85
2022/07/16 06:37:17;;;;;;;4.47;1.30;;;26.60;99.90;;;;;;5084005;28;20200;-85
2022/07/16 06:39:45;;;;;;;2.50;1.30;;;26.70;99.90;;;;;;5092356;28;20661;-81
2022/07/16 06:42:12;;;;;;;4.65;1.15;;;26.60;99.70;;;;;;5083761;28;20204;-81
2022/07/16 06:44:40;;;;;;;4.03;0.90;;;26.50;98.00;;;;;;5088353;28;20280;-90
2022/07/16 06:47:09;;;;;;;4.72;1.33;;;26.20;97.20;;;;;;5082875;28;20768;-88
2022/07/16 06:49:36;;;;;;;2.28;0.90;;;26.20;96.80;;;;;;5084791;28;20216;-87
2022/07/16 06:52:04;;;;;;;1.25;0.85;;;26.00;96.20;;;;;;5084078;28;20207;-87
2022/07/16 06:54:32;;;;;;;6.30;1.10;;;26.10;95.40;;;;;;5073816;28;20589;-86
2022/07/16 06:57:00;;;;;;;3.00;0.95;;;25.90;93.90;;;;;;5084742;28;20200;-82
2022/07/16 06:59:27;;;;;;;4.70;1.00;;;25.90;93.40;;;;;;5079356;28;20721;-81
2022/07/16 07:01:54;;;;;;;3.95;1.17;;;26.20;93.40;;;;;;5073810;28;20238;-85
2022/07/16 07:04:21;;;;;;;2.08;0.90;;;26.60;92.90;;;;;;5075993;28;20599;-84
2022/07/16 07:06:48;;;;;;;2.08;0.73;;;26.70;92.40;;;;;;5083209;28;20690;-86
2022/07/16 07:09:17;;;;;;;3.10;0.80;;;26.70;91.20;;;;;;5078803;28;20602;-86
2022/07/16 07:11:44;;;;;;;1.95;0.77;;;26.50;91.60;;;;;;5075135;28;20937;-83
2022/07/16 07:14:11;;;;;;;5.50;1.00;;;26.40;91.30;;;;;;5078298;28;20254;-83
2022/07/16 07:16:38;;;;;;;3.95;1.00;;;26.30;91.30;;;;;;5083434;28;20212;-83
2022/07/16 07:19:07;;;;;;;4.85;1.02;;;26.40;91.50;;;;;;5082353;28;20363;-82
2022/07/16 07:21:34;;;;;;;4.15;0.98;;;26.70;91.20;;;;;;5080858;28;20207;-83
2022/07/16 07:24:01;;;;;;;2.47;0.90;;;26.90;90.50;;;;;;5078410;28;20218;-83
2022/07/16 07:26:28;;;;;;;3.03;0.90;;;27.10;90.50;;;;;;5082572;28;20233;-80
2022/07/16 07:28:55;;;;;;;2.28;0.80;;;27.40;90.00;;;;;;5079404;28;21318;-83
2022/07/16 07:31:22;;;;;;;2.17;1.08;;;27.50;89.10;;;;;;5079536;28;20896;-82
2022/07/16 07:33:49;;;;;;;4.53;1.00;;;27.60;89.50;;;;;;5085619;28;20775;-81
2022/07/16 07:36:16;;;;;;;3.35;1.23;;;27.80;88.50;;;;;;5076507;28;20212;-81
2022/07/16 07:38:43;;;;;;;4.20;1.08;;;28.00;87.20;;;;;;5071525;28;20201;-82
2022/07/16 07:41:10;;;;;;;3.13;0.93;;;27.90;86.60;;;;;;5077874;28;20717;-82
2022/07/16 07:43:36;;;;;;;1.88;0.90;;;28.00;85.90;;;;;;5082740;28;20249;-81
2022/07/16 07:46:03;;;;;;;4.18;0.93;;;28.20;85.20;;;;;;5083196;28;20373;-84
2022/07/16 07:48:30;;;;;;;2.90;0.88;;;28.20;84.10;;;;;;5084452;28;20231;-82
2022/07/16 07:51:00;;;;;;;5.80;1.30;;;27.90;84.30;;;;;;5084590;28;20226;-83
2022/07/16 07:53:30;;;;;;;2.05;0.75;;;27.50;84.90;;;;;;5080185;28;20199;-83
2022/07/16 07:55:57;;;;;;;2.00;1.02;;;27.30;85.90;;;;;;5084043;28;20656;-82
2022/07/16 07:58:29;;;;;;;2.67;0.90;;;27.00;84.90;;;;;;5078029;28;20931;-83
2022/07/16 08:00:57;;;;;;;2.60;1.00;;;26.80;83.10;;;;;;5081404;28;20235;-83
2022/07/16 08:03:46;;;;;;;1.80;0.88;;;26.70;81.20;;;;;;5084453;28;20204;-90
2022/07/16 08:06:14;;;;;;;3.40;1.00;;;26.70;81.30;;;;;;5084006;28;20236;-86
2022/07/16 08:08:44;;;;;;;3.40;0.90;;;26.60;81.00;;;;;;5076333;28;20204;-82
2022/07/16 08:11:11;;;;;;;2.38;0.75;;;26.50;80.40;;;;;;5085110;28;20200;-82
2022/07/16 08:13:47;;;;;;;3.03;1.13;;;26.40;80.10;;;;;;5082536;28;20216;-84
2022/07/16 08:16:34;;;;;;;3.55;0.90;;;26.30;80.70;;;;;;5077967;28;20219;-83
2022/07/16 08:19:01;;;;;;;1.90;0.80;;;26.50;80.90;;;;;;5088687;28;20208;-82
2022/07/16 08:21:28;;;;;;;1.80;0.80;;;26.50;80.40;;;;;;5093780;28;20211;-81
2022/07/16 08:26:48;;;;;;;2.65;0.90;;;26.90;81.10;;;;;;5086111;28;20200;-83
2022/07/16 08:29:18;;;;;;;4.80;1.02;;;27.00;81.30;;;;;;5083757;28;20235;-83
2022/07/16 08:31:47;;;;;;;4.03;0.90;;;26.70;78.90;;;;;;5094989;28;20261;-83
2022/07/16 08:34:22;;;;;;;5.28;1.20;;;26.30;78.10;;;;;;5092787;28;20188;-82
2022/07/16 08:37:12;;;;;;;;;;;;;;;;;;;;;
2022/07/16 08:40:08;;;;;;;3.17;1.13;;;25.40;79.90;;;;;;5073399;28;20226;-88
2022/07/16 08:43:10;;;;;;;1.65;0.60;;;25.30;80.90;;;;;;5073120;28;20820;-87
2022/07/16 08:45:58;;;;;;;9.60;2.17;;;25.50;81.80;;;;;;5008203;28;20719;-89
2022/07/16 08:49:04;;;;;;;3.15;0.90;;;26.10;80.80;;;;;;5013004;28;20277;-90
2022/07/16 08:51:39;;;;;;;3.38;1.08;;;26.80;79.20;;;;;;5008115;28;20211;-89
2022/07/16 08:54:29;;;;;;;2.92;0.77;;;27.20;78.90;;;;;;5010655;28;20220;-87
2022/07/16 08:57:02;;;;;;;2.90;0.90;;;27.30;78.50;;;;;;4984810;28;20207;-88
2022/07/16 08:59:32;;;;;;;4.65;0.98;;;26.70;78.30;;;;;;5005855;28;20210;-88
2022/07/16 09:02:01;;;;;;;2.40;0.90;;;26.30;78.80;;;;;;5011350;28;20238;-88
2022/07/16 09:05:13;;;;;;;2.38;0.75;;;25.60;79.30;;;;;;5012893;28;20300;-91
2022/07/16 09:07:49;;;;;;;3.60;0.85;;;24.90;80.30;;;;;;4913378;29;20205;-89
2022/07/16 09:10:34;;;;;;;3.05;0.90;;;24.50;81.10;;;;;;5059072;28;20199;-88
2022/07/16 09:13:05;;;;;;;2.95;0.90;;;24.60;82.10;;;;;;5089452;28;20211;-87
2022/07/16 09:15:38;;;;;;;3.40;1.00;;;25.10;82.20;;;;;;5084769;28;20215;-88
2022/07/16 09:18:17;;;;;;;2.60;1.00;;;25.60;81.60;;;;;;5088458;28;20208;-88
2022/07/16 09:20:45;;;;;;;2.45;0.70;;;26.00;80.80;;;;;;5083968;28;20196;-92
2022/07/16 09:23:37;;;;;;;3.17;1.10;;;26.00;79.30;;;;;;5080115;28;20205;-87
2022/07/16 09:26:09;;;;;;;3.00;0.98;;;25.80;79.50;;;;;;5083064;28;20227;-88
2022/07/16 09:28:45;;;;;;;2.97;0.80;;;25.40;80.50;;;;;;5088861;28;20207;-89
2022/07/16 09:31:37;;;;;;;4.20;0.93;;;24.90;83.10;;;;;;5082240;28;20434;-90
2022/07/16 09:34:11;;;;;;;4.30;1.42;;;24.30;85.70;;;;;;5093471;28;20216;-91
2022/07/16 09:37:03;;;;;;;5.25;2.30;;;23.90;87.20;;;;;;5090833;28;20204;-91
2022/07/16 09:39:47;;;;;;;4.20;2.10;;;23.50;88.90;;;;;;5090771;28;20632;-88
2022/07/16 09:42:14;;;;;;;5.93;1.30;;;23.10;90.40;;;;;;5092118;28;20270;-88
2022/07/16 09:44:43;;;;;;;4.43;1.05;;;23.00;90.70;;;;;;5086587;28;20216;-89
2022/07/16 09:47:13;;;;;;;4.25;1.38;;;23.20;91.00;;;;;;5082202;28;20226;-89
2022/07/16 09:49:54;;;;;;;5.28;0.95;;;23.60;91.30;;;;;;5089721;28;20191;-87
2022/07/16 09:52:48;;;;;;;6.93;1.10;;;23.90;90.10;;;;;;5081074;28;20212;-88
2022/07/16 09:56:16;;;;;;;3.50;1.00;;;24.20;89.70;;;;;;5085171;28;20208;-90
2022/07/16 09:58:48;;;;;;;3.58;1.00;;;24.40;86.60;;;;;;5014572;28;20208;-86
2022/07/16 10:01:20;;;;;;;3.13;1.13;;;24.60;84.90;;;;;;5051827;28;20227;-88
2022/07/16 10:03:52;;;;;;;3.67;1.05;;;24.70;84.00;;;;;;5087307;28;20204;-91
2022/07/16 10:06:20;;;;;;;3.70;1.35;;;24.50;84.80;;;;;;5082941;28;20239;-88
2022/07/16 10:08:52;;;;;;;3.63;1.10;;;24.40;85.00;;;;;;5089899;28;20661;-87
2022/07/16 10:11:20;;;;;;;4.55;1.58;;;24.10;85.20;;;;;;5084797;28;20207;-88
2022/07/16 10:14:02;;;;;;;3.92;1.20;;;24.00;86.20;;;;;;5083180;28;20208;-88
2022/07/16 10:16:40;;;;;;;4.13;1.17;;;23.80;86.70;;;;;;5094750;28;20638;-89
2022/07/16 10:19:09;;;;;;;5.07;1.25;;;23.80;88.20;;;;;;5087660;28;20211;-88
2022/07/16 10:21:41;;;;;;;2.85;1.10;;;24.00;88.70;;;;;;5083512;28;20206;-86
2022/07/16 10:24:15;;;;;;;3.20;1.20;;;24.40;87.10;;;;;;5083900;28;20208;-87
2022/07/16 10:26:45;;;;;;;2.22;0.90;;;24.70;85.30;;;;;;5074440;28;20281;-87
2022/07/16 10:29:40;;;;;;;3.13;0.98;;;24.80;83.80;;;;;;5079814;28;20207;-86
2022/07/16 10:34:55;;;;;;;3.78;1.17;;;25.00;84.00;;;;;;5084236;28;20211;-87
2022/07/16 10:37:30;;;;;;;2.90;0.90;;;24.90;83.00;;;;;;5081357;28;20206;-85
2022/07/16 10:40:06;;;;;;;4.13;0.88;;;24.60;83.60;;;;;;5086377;28;20556;-87
2022/07/16 10:42:37;;;;;;;2.92;1.00;;;24.40;84.80;;;;;;5084265;28;20268;-87
2022/07/16 10:45:42;;;;;;;1.13;0.80;;;24.50;84.90;;;;;;5076528;28;20244;-87
2022/07/16 10:48:36;;;;;;;3.08;0.85;;;24.70;85.00;;;;;;5081157;28;20237;-87
2022/07/16 10:51:18;;;;;;;4.93;0.90;;;24.90;81.20;;;;;;5078447;28;20599;-87
2022/07/16 10:53:58;;;;;;;3.63;0.90;;;24.70;80.40;;;;;;5072759;28;20212;-87
2022/07/16 10:56:44;;;;;;;3.20;1.60;;;24.60;80.00;;;;;;5080110;28;20672;-87
2022/07/16 10:59:23;;;;;;;3.13;0.90;;;24.70;80.00;;;;;;5078960;28;20195;-88
2022/07/16 11:01:53;;;;;;;3.42;0.93;;;24.70;78.90;;;;;;5071652;28;20223;-86
2022/07/16 11:04:29;;;;;;;3.55;0.93;;;24.70;80.80;;;;;;5080994;28;20208;-86
2022/07/16 11:07:00;;;;;;;1.45;0.75;;;24.70;80.30;;;;;;5081316;28;20231;-85
2022/07/16 11:09:31;;;;;;;3.58;0.90;;;24.80;80.10;;;;;;5085108;28;20203;-86
2022/07/16 11:12:25;;;;;;;2.67;0.85;;;24.90;79.50;;;;;;5081994;28;20209;-88
2022/07/16 11:14:55;;;;;;;3.15;0.90;;;25.00;78.70;;;;;;5083246;28;20200;-80
2022/07/16 11:17:25;;;;;;;2.78;1.00;;;25.10;78.90;;;;;;5079567;28;20211;-79
2022/07/16 11:19:55;;;;;;;5.07;0.80;;;25.00;80.30;;;;;;5083748;28;20379;-79
2022/07/16 11:22:28;;;;;;;2.25;0.82;;;24.70;80.00;;;;;;5076491;28;20205;-80
2022/07/16 11:25:05;;;;;;;2.72;0.80;;;24.70;80.20;;;;;;5079640;28;20813;-85
2022/07/16 11:27:31;;;;;;;3.03;0.70;;;24.90;76.10;;;;;;5081413;28;20254;-82
2022/07/16 11:30:01;;;;;;;3.33;0.80;;;24.60;77.10;;;;;;5082634;28;20235;-83
2022/07/16 11:32:29;;;;;;;2.53;0.65;;;24.60;78.70;;;;;;5079164;28;20200;-83
2022/07/16 11:34:56;;;;;;;2.75;0.77;;;24.80;79.00;;;;;;5079960;28;20196;-82
2022/07/16 11:37:22;;;;;;;3.97;1.00;;;24.90;78.40;;;;;;5076383;28;20200;-86
2022/07/16 11:40:01;;;;;;;3.75;1.10;;;24.90;78.70;;;;;;5076453;28;20207;-86
2022/07/16 11:42:28;;;;;;;4.38;1.08;;;25.00;79.40;;;;;;5082246;28;20200;-86
2022/07/16 11:44:57;;;;;;;2.65;1.00;;;25.20;80.50;;;;;;5081674;28;20282;-85
2022/07/16 11:47:27;;;;;;;3.08;0.93;;;25.40;80.40;;;;;;5079386;28;20255;-89
2022/07/16 11:49:57;;;;;;;3.70;1.08;;;25.60;79.20;;;;;;5078010;28;20975;-82
2022/07/16 11:52:24;;;;;;;3.20;0.80;;;25.70;77.50;;;;;;5082293;28;20208;-83
2022/07/16 11:54:56;;;;;;;3.65;1.10;;;25.80;76.70;;;;;;5086265;28;20204;-81
2022/07/16 11:57:23;;;;;;;2.97;0.90;;;25.70;76.50;;;;;;5082993;28;20258;-82
2022/07/16 11:59:53;;;;;;;2.28;0.82;;;25.70;76.40;;;;;;5084931;28;20656;-80
2022/07/16 12:02:26;;;;;;;2.20;0.77;;;25.90;77.80;;;;;;5045814;28;20462;-83
2022/07/16 12:04:56;;;;;;;5.13;1.00;;;25.90;77.60;;;;;;5066101;28;20205;-85
2022/07/16 12:07:25;;;;;;;3.67;1.00;;;25.90;76.80;;;;;;5047612;28;20598;-84
2022/07/16 12:09:57;;;;;;;2.72;0.80;;;25.70;76.30;;;;;;5046403;28;20240;-84
2022/07/16 12:12:29;;;;;;;2.05;1.00;;;25.60;77.30;;;;;;5061706;28;20209;-81
2022/07/16 12:14:58;;;;;;;4.15;1.33;;;25.40;76.80;;;;;;5061818;28;20212;-83
2022/07/16 12:17:45;;;;;;;3.08;0.80;;;25.00;77.10;;;;;;5044800;28;20586;-84
2022/07/16 12:20:30;;;;;;;2.08;0.85;;;24.90;77.40;;;;;;5062884;28;20205;-88
2022/07/16 12:23:16;;;;;;;5.07;1.45;;;25.00;77.40;;;;;;5063623;28;20393;-87
2022/07/16 12:25:47;;;;;;;1.50;1.05;;;25.30;77.30;;;;;;5046338;28;20236;-87
2022/07/16 12:28:20;;;;;;;2.90;0.80;;;25.50;76.70;;;;;;5043697;28;20227;-81
2022/07/16 12:30:55;;;;;;;2.40;0.80;;;25.30;75.80;;;;;;5063083;28;20216;-80
2022/07/16 12:33:27;;;;;;;5.07;1.33;;;25.20;76.00;;;;;;5052241;28;20231;-82
2022/07/16 12:36:04;;;;;;;3.40;0.98;;;25.40;76.40;;;;;;5061477;28;20202;-81
2022/07/16 12:38:41;;;;;;;4.00;0.98;;;25.50;75.80;;;;;;5062760;28;20267;-84
2022/07/16 12:41:13;;;;;;;3.28;0.90;;;25.40;76.60;;;;;;5042144;28;20213;-83
2022/07/16 12:43:41;;;;;;;2.60;1.00;;;25.20;77.20;;;;;;5059717;28;20205;-83
2022/07/16 12:46:11;;;;;;;2.25;0.80;;;25.00;77.30;;;;;;5043313;28;20236;-83
2022/07/16 12:48:44;;;;;;;3.00;0.93;;;25.10;77.40;;;;;;5058534;28;20274;-81
2022/07/16 12:51:14;;;;;;;3.45;0.80;;;25.20;77.90;;;;;;5059675;28;20204;-81
2022/07/16 12:53:41;;;;;;;2.47;1.10;;;25.40;78.40;;;;;;5062962;28;20270;-90
2022/07/16 12:58:55;;;;;;;2.95;0.95;;;25.80;78.50;;;;;;5063602;28;20207;-79
2022/07/16 13:01:26;;;;;;;2.30;0.65;;;25.90;76.50;;;;;;5074297;28;20232;-83
2022/07/16 13:03:54;;;;;;;3.13;1.00;;;25.90;76.40;;;;;;5106265;28;20208;-85
2022/07/16 13:06:22;;;;;;;3.50;0.82;;;25.90;77.70;;;;;;5108104;28;20251;-84
2022/07/16 13:08:56;;;;;;;5.43;0.90;;;26.10;77.20;;;;;;5102667;28;20207;-89
2022/07/16 13:11:24;;;;;;;3.63;0.80;;;26.30;78.00;;;;;;5094167;28;20204;-82
2022/07/16 13:13:55;;;;;;;1.88;0.90;;;26.40;78.50;;;;;;5098130;28;20740;-85
2022/07/16 13:16:24;;;;;;;4.07;0.80;;;26.40;78.30;;;;;;5092851;28;20230;-83
2022/07/16 13:18:56;;;;;;;3.33;0.93;;;26.40;77.30;;;;;;5102580;28;20467;-88
2022/07/16 13:21:26;;;;;;;2.65;0.88;;;26.50;77.80;;;;;;5088600;28;20226;-87
2022/07/16 13:23:55;;;;;;;5.07;1.00;;;26.60;77.90;;;;;;5088793;28;20214;-87
2022/07/16 13:26:29;;;;;;;4.43;0.95;;;26.60;76.40;;;;;;5103624;28;20234;-87